This is the latest recevied weather packets stored in our database for station/object IZ3ZOD-13. If no packets are shown the sender has not sent any weather packets the latest 10 day(s).
| Time | Temp. | Humidity | Pressure | Rain* | Wind** | Luminosity | Snow |
|---|---|---|---|---|---|---|---|
| 1777849443 | 14.44° C | 80% | 1017.1 hPa | 0 mm | - | - | - |
| 1777848723 | 15° C | 79% | 1017.2 hPa | 0 mm | - | - | - |
| 1777848483 | 15° C | 79% | 1017.1 hPa | 0 mm | - | - | - |
| 1777848003 | 14.44° C | 80% | 1017.3 hPa | 0 mm | - | - | - |
| 1777847283 | 15° C | 78% | 1017.3 hPa | 0 mm | - | - | - |
| 1777845604 | 14.44° C | 80% | 1017 hPa | 0 mm | - | - | - |
| 1777843444 | 15.56° C | 75% | 1017 hPa | 0 mm | - | - | - |
| 1777842963 | 15.56° C | 76% | 1016.9 hPa | 0 mm | - | - | - |
| 1777842483 | 15.56° C | 74% | 1016.9 hPa | 0 mm | - | - | - |
| 1777841284 | 16.11° C | 73% | 1016.8 hPa | 0 mm | - | - | - |
| 1777841044 | 16.11° C | 73% | 1016.7 hPa | 0 mm | - | - | - |
| 1777840563 | 16.67° C | 72% | 1016.7 hPa | 0 mm | - | - | - |
| 1777839844 | 16.67° C | 71% | 1016.9 hPa | 0 mm | - | - | - |
| 1777836484 | 17.78° C | 66% | 1016.9 hPa | 0 mm | - | - | - |
| 1777836244 | 18.33° C | 66% | 1016.8 hPa | 0 mm | - | - | - |
| 1777835763 | 18.33° C | 65% | 1016.6 hPa | 0 mm | - | - | - |
| 1777831684 | 20° C | 62% | 1016.5 hPa | 0 mm | - | - | - |
| 1777830615 | 21.11° C | 59% | 1016.3 hPa | 0 mm | - | - | - |
| 1777825683 | 23.89° C | 47% | 1016.4 hPa | 0 mm | - | - | - |
| 1777825443 | 23.89° C | 45% | 1016.3 hPa | 0 mm | - | - | - |
| 1777824855 | 23.89° C | 45% | 1016.6 hPa | 0 mm | - | - | - |
| 1777823524 | 23.89° C | 45% | 1016.4 hPa | 0 mm | - | - | - |
| 1777823416 | 23.89° C | 44% | 1016.7 hPa | 0 mm | - | - | - |
| 1777818373 | 25.56° C | 39% | 1017.3 hPa | 0 mm | - | - | - |
| 1777816803 | 25° C | 42% | 1017.4 hPa | 0 mm | - | - | - |
* Rain latest hour (hover to see other rain measurements)
** Current wind speed in m/s (hover to see current wind gust speed)